createdAt,value
2017-08-18T00:00:32.718Z,97894.95
2017-08-18T00:03:00.338Z,97886.30
2017-08-18T00:05:27.944Z,97894.42
2017-08-18T00:07:55.933Z,97895.16
2017-08-18T00:10:23.490Z,97898.34
2017-08-18T00:12:51.105Z,97882.95
2017-08-18T00:15:18.783Z,97887.50
2017-08-18T00:17:46.960Z,97878.70
2017-08-18T00:20:14.497Z,97876.14
2017-08-18T00:22:42.375Z,97869.93
2017-08-18T00:25:09.910Z,97871.22
2017-08-18T00:27:37.551Z,97871.27
2017-08-18T00:30:05.088Z,97868.23
2017-08-18T00:32:34.161Z,97864.91
2017-08-18T00:35:01.850Z,97870.35
2017-08-18T00:37:30.147Z,97864.12
2017-08-18T00:39:57.904Z,97865.20
2017-08-18T00:42:25.481Z,97866.89
2017-08-18T00:44:53.071Z,97861.40
2017-08-18T00:47:20.686Z,97853.17
2017-08-18T00:49:48.283Z,97851.90
2017-08-18T00:52:16.001Z,97853.66
2017-08-18T00:54:43.554Z,97851.32
2017-08-18T00:57:11.085Z,97850.40
2017-08-18T00:59:38.637Z,97852.52
2017-08-18T01:02:06.189Z,97851.99
2017-08-18T01:04:33.837Z,97851.59
2017-08-18T01:07:01.457Z,97853.89
2017-08-18T01:09:29.758Z,97857.38
2017-08-18T01:11:57.417Z,97854.20
2017-08-18T01:14:25.054Z,97849.88
2017-08-18T01:16:53.431Z,97845.47
2017-08-18T01:19:21.067Z,97845.22
2017-08-18T01:21:48.683Z,97838.27
2017-08-18T01:24:18.941Z,97837.52
2017-08-18T01:26:47.039Z,97826.84
2017-08-18T01:29:14.617Z,97831.80
2017-08-18T01:31:42.299Z,97822.80
2017-08-18T01:34:09.870Z,97815.74
2017-08-18T01:36:37.473Z,97812.26
2017-08-18T01:39:05.625Z,97815.03
2017-08-18T01:41:33.829Z,97818.61
2017-08-18T01:44:01.466Z,97817.06
2017-08-18T01:46:28.976Z,97814.98
2017-08-18T01:48:56.613Z,97822.70
2017-08-18T01:51:24.210Z,97818.56
2017-08-18T01:53:51.788Z,97818.08
2017-08-18T01:56:19.385Z,97810.18
2017-08-18T01:58:50.041Z,97803.12
2017-08-18T02:01:17.587Z,97808.50
2017-08-18T02:03:46.019Z,97810.31
2017-08-18T02:06:13.668Z,97821.60
2017-08-18T02:08:41.252Z,97816.35
2017-08-18T02:11:08.764Z,97818.16
2017-08-18T02:13:36.379Z,97825.17
2017-08-18T02:16:04.743Z,97824.20
2017-08-18T02:18:32.299Z,97827.95
2017-08-18T02:21:00.061Z,97815.16
2017-08-18T02:23:27.627Z,97813.97
2017-08-18T02:25:55.190Z,97815.88
2017-08-18T02:28:22.728Z,97810.16
2017-08-18T02:30:50.326Z,97804.40
2017-08-18T02:33:18.663Z,97810.88
2017-08-18T02:35:46.239Z,97808.61
2017-08-18T02:38:13.924Z,97805.87
2017-08-18T02:40:41.521Z,97806.18
2017-08-18T02:43:09.031Z,97802.92
2017-08-18T02:45:39.711Z,97809.48
2017-08-18T02:48:07.346Z,97810.62
2017-08-18T02:50:34.866Z,97810.10
2017-08-18T02:53:02.497Z,97800.72
2017-08-18T02:55:30.035Z,97799.52
2017-08-18T02:57:57.918Z,97806.13
2017-08-18T03:00:25.493Z,97808.14
2017-08-18T03:02:53.067Z,97802.38
2017-08-18T03:05:21.404Z,97809.86
2017-08-18T03:07:49.000Z,97807.28
2017-08-18T03:10:17.394Z,97802.38
2017-08-18T03:12:46.079Z,97800.41
2017-08-18T03:15:14.392Z,97805.05
2017-08-18T03:17:42.781Z,97801.75
2017-08-18T03:20:10.474Z,97804.73
2017-08-18T03:22:38.814Z,97806.45
2017-08-18T03:25:06.368Z,97808.83
2017-08-18T03:27:34.560Z,97801.88
2017-08-18T03:30:02.281Z,97811.21
2017-08-18T03:32:29.793Z,97807.06
2017-08-18T03:34:57.318Z,97803.27
2017-08-18T03:37:24.898Z,97802.02
2017-08-18T03:39:52.488Z,97805.40
2017-08-18T03:42:20.125Z,97802.99
2017-08-18T03:44:47.668Z,97798.00
2017-08-18T03:47:15.277Z,97797.78
2017-08-18T03:49:44.084Z,97805.45
2017-08-18T03:52:11.707Z,97807.91
2017-08-18T03:54:39.207Z,97806.91
2017-08-18T03:57:06.805Z,97809.23
2017-08-18T03:59:34.683Z,97811.27
2017-08-18T04:02:02.242Z,97812.06
2017-08-18T04:04:29.741Z,97816.28
2017-08-18T04:06:57.274Z,97814.80
2017-08-18T04:09:24.768Z,97819.91
2017-08-18T04:11:52.251Z,97815.75
2017-08-18T04:14:19.795Z,97820.26
2017-08-18T04:16:51.524Z,97820.39
2017-08-18T04:19:19.080Z,97813.78
2017-08-18T04:21:46.667Z,97811.67
2017-08-18T04:24:14.194Z,97801.20
2017-08-18T04:26:41.861Z,97814.45
2017-08-18T04:29:09.428Z,97810.94
2017-08-18T04:31:36.970Z,97816.77
2017-08-18T04:34:04.542Z,97811.21
2017-08-18T04:36:32.090Z,97800.30
2017-08-18T04:38:59.580Z,97796.73
2017-08-18T04:41:27.080Z,97792.87
2017-08-18T04:43:54.562Z,97790.81
2017-08-18T04:46:22.051Z,97791.57
2017-08-18T04:48:49.508Z,97796.44
2017-08-18T04:51:16.964Z,97792.50
2017-08-18T04:53:44.455Z,97785.73
2017-08-18T04:56:11.954Z,97794.67
2017-08-18T04:58:39.560Z,97788.28
2017-08-18T05:01:07.059Z,97782.59
2017-08-18T05:03:34.557Z,97781.15
2017-08-18T05:06:02.052Z,97787.95
2017-08-18T05:08:29.645Z,97788.34
2017-08-18T05:10:57.157Z,97792.89
2017-08-18T05:13:24.756Z,97797.94
2017-08-18T05:15:52.247Z,97789.81
2017-08-18T05:18:19.763Z,97790.36
2017-08-18T05:20:47.247Z,97801.56
2017-08-18T05:23:14.714Z,97797.70
2017-08-18T05:25:42.208Z,97786.30
2017-08-18T05:28:09.670Z,97777.22
2017-08-18T05:30:37.180Z,97781.23
2017-08-18T05:33:04.701Z,97773.70
2017-08-18T05:35:32.202Z,97765.91
2017-08-18T05:37:59.695Z,97770.39
2017-08-18T05:40:27.195Z,97773.52
2017-08-18T05:42:54.692Z,97774.16
2017-08-18T05:45:23.221Z,97767.84
2017-08-18T05:47:50.742Z,97765.95
2017-08-18T05:50:18.240Z,97766.50
2017-08-18T05:52:45.733Z,97756.55
2017-08-18T05:55:13.278Z,97753.06
2017-08-18T05:57:40.800Z,97750.18
2017-08-18T06:00:08.300Z,97753.63
2017-08-18T06:02:35.780Z,97749.66
2017-08-18T06:05:03.342Z,97754.27
2017-08-18T06:07:30.835Z,97760.89
2017-08-18T06:09:58.395Z,97771.64
2017-08-18T06:12:25.994Z,97781.39
2017-08-18T06:14:53.513Z,97770.76
2017-08-18T06:17:21.027Z,97760.56
2017-08-18T06:19:48.539Z,97758.31
2017-08-18T06:22:16.767Z,97754.25
2017-08-18T06:24:44.280Z,97753.20
2017-08-18T06:27:11.784Z,97759.73
2017-08-18T06:29:39.326Z,97764.81
2017-08-18T06:32:06.816Z,97761.77
2017-08-18T06:34:34.361Z,97769.89
2017-08-18T06:37:01.863Z,97767.37
2017-08-18T06:39:29.363Z,97761.10
2017-08-18T06:41:57.013Z,97762.81
2017-08-18T06:44:24.682Z,97757.17
2017-08-18T06:46:52.335Z,97753.11
2017-08-18T06:49:19.871Z,97755.63
2017-08-18T06:51:47.433Z,97761.83
2017-08-18T06:54:14.983Z,97764.95
2017-08-18T06:56:42.469Z,97757.45
2017-08-18T06:59:09.984Z,97752.73
2017-08-18T07:01:37.474Z,97758.67
2017-08-18T07:04:05.612Z,97750.31
2017-08-18T07:06:33.138Z,97735.12
2017-08-18T07:09:00.646Z,97726.77
2017-08-18T07:11:28.187Z,97724.20
2017-08-18T07:13:55.707Z,97716.70
2017-08-18T07:16:23.324Z,97727.41
2017-08-18T07:18:50.853Z,97729.72
2017-08-18T07:21:18.475Z,97742.39
2017-08-18T07:23:45.991Z,97739.13
2017-08-18T07:26:13.488Z,97741.44
2017-08-18T07:28:41.034Z,97737.36
2017-08-18T07:31:08.581Z,97741.29
2017-08-18T07:33:36.119Z,97741.75
2017-08-18T07:36:03.635Z,97736.87
2017-08-18T07:38:31.193Z,97739.50
2017-08-18T07:40:58.712Z,97737.14
2017-08-18T07:43:26.194Z,97734.58
2017-08-18T07:45:53.712Z,97732.41
2017-08-18T07:48:21.224Z,97724.16
2017-08-18T07:50:48.699Z,97726.75
2017-08-18T07:53:16.219Z,97720.61
2017-08-18T07:55:43.708Z,97732.28
2017-08-18T07:58:12.332Z,97730.85
2017-08-18T08:00:39.986Z,97736.65
2017-08-18T08:03:07.564Z,97739.31
2017-08-18T08:05:35.228Z,97732.84
2017-08-18T08:08:02.820Z,97739.05
2017-08-18T08:10:30.357Z,97741.87
2017-08-18T08:12:57.856Z,97749.95
2017-08-18T08:15:25.349Z,97749.23
2017-08-18T08:17:52.928Z,97731.79
2017-08-18T08:20:21.184Z,97714.27
2017-08-18T08:22:48.723Z,97721.34
2017-08-18T08:25:16.259Z,97721.34
2017-08-18T08:28:16.177Z,97718.78
2017-08-18T08:30:43.731Z,97711.70
2017-08-18T08:33:12.132Z,97704.63
2017-08-18T08:35:39.706Z,97707.58
2017-08-18T08:38:07.159Z,97701.45
2017-08-18T08:40:34.647Z,97704.30
2017-08-18T08:43:02.099Z,97697.20
2017-08-18T08:45:29.605Z,97702.94
2017-08-18T08:47:57.065Z,97704.09
2017-08-18T08:50:24.524Z,97702.68
2017-08-18T08:52:52.609Z,97693.70
2017-08-18T08:55:20.103Z,97687.35
2017-08-18T08:57:47.623Z,97694.37
2017-08-18T09:00:15.137Z,97700.05
2017-08-18T09:02:42.815Z,97695.14
2017-08-18T09:05:10.316Z,97692.67
2017-08-18T09:07:37.806Z,97694.97
2017-08-18T09:10:05.296Z,97684.67
2017-08-18T09:12:32.789Z,97679.36
2017-08-18T09:15:00.365Z,97673.19
2017-08-18T09:17:28.992Z,97669.28
2017-08-18T09:19:56.496Z,97671.42
2017-08-18T09:22:24.000Z,97663.00
2017-08-18T09:24:51.511Z,97650.52
2017-08-18T09:27:19.108Z,97654.41
2017-08-18T09:29:46.600Z,97651.69
2017-08-18T09:32:14.086Z,97647.77
2017-08-18T09:34:41.598Z,97643.26
2017-08-18T09:37:09.085Z,97641.80
2017-08-18T09:39:36.609Z,97633.69
2017-08-18T09:42:04.808Z,97632.82
2017-08-18T09:44:32.347Z,97634.98
2017-08-18T09:46:59.824Z,97638.52
2017-08-18T09:49:39.127Z,97643.36
2017-08-18T09:52:18.230Z,97640.13
2017-08-18T09:54:58.523Z,97636.64
2017-08-18T09:57:37.850Z,97631.42
2017-08-18T10:00:05.371Z,97622.73
2017-08-18T10:02:33.004Z,97630.97
2017-08-18T10:05:00.860Z,97621.53
2017-08-18T10:07:28.395Z,97621.13
2017-08-18T10:09:56.374Z,97613.51
2017-08-18T10:12:23.978Z,97615.02
2017-08-18T10:14:51.819Z,97613.16
2017-08-18T10:17:19.346Z,97616.03
2017-08-18T10:19:46.853Z,97605.98
2017-08-18T10:22:14.442Z,97596.79
2017-08-18T10:24:42.137Z,97599.30
2017-08-18T10:27:10.715Z,97593.63
2017-08-18T10:29:38.218Z,97591.95
2017-08-18T10:32:05.726Z,97590.95
2017-08-18T10:34:33.396Z,97582.68
2017-08-18T10:37:00.953Z,97580.55
2017-08-18T10:39:28.481Z,97584.74
2017-08-18T10:41:56.139Z,97573.08
2017-08-18T10:44:23.808Z,97573.16
2017-08-18T10:46:51.338Z,97573.64
2017-08-18T10:49:18.880Z,97571.50
2017-08-18T10:51:47.129Z,97568.88
2017-08-18T10:54:14.770Z,97559.92
2017-08-18T10:56:42.368Z,97550.45
2017-08-18T10:59:10.130Z,97547.58
2017-08-18T11:01:38.496Z,97548.41
2017-08-18T11:04:06.247Z,97534.62
2017-08-18T11:06:34.992Z,97535.16
2017-08-18T11:09:04.973Z,97531.95
2017-08-18T11:11:32.494Z,97522.68
2017-08-18T11:13:59.973Z,97519.66
2017-08-18T11:16:27.480Z,97520.55
2017-08-18T11:18:54.960Z,97513.92
2017-08-18T11:21:22.615Z,97521.25
2017-08-18T11:23:50.099Z,97516.47
2017-08-18T11:26:18.004Z,97516.14
2017-08-18T11:28:45.583Z,97507.66
2017-08-18T11:31:13.203Z,97502.42
2017-08-18T11:33:40.808Z,97499.00
2017-08-18T11:36:08.360Z,97498.17
2017-08-18T11:38:35.892Z,97499.91
2017-08-18T11:41:03.374Z,97495.05
2017-08-18T11:43:31.401Z,97487.53
2017-08-18T11:45:59.166Z,97481.34
2017-08-18T11:48:26.744Z,97475.33
2017-08-18T11:50:54.297Z,97472.63
2017-08-18T11:53:21.848Z,97467.68
2017-08-18T11:55:50.039Z,97466.22
2017-08-18T11:58:17.621Z,97459.53
2017-08-18T12:00:45.416Z,97457.21
2017-08-18T12:03:12.970Z,97454.48
2017-08-18T12:05:40.541Z,97450.43
2017-08-18T12:08:09.081Z,97454.42
2017-08-18T12:10:36.581Z,97447.48
2017-08-18T12:13:04.137Z,97443.40
2017-08-18T12:15:31.891Z,97447.30
2017-08-18T12:18:00.047Z,97443.42
2017-08-18T12:20:27.633Z,97429.27
2017-08-18T12:22:55.180Z,97425.51
2017-08-18T12:25:23.009Z,97417.45
2017-08-18T12:27:50.717Z,97415.52
2017-08-18T12:30:18.233Z,97418.05
2017-08-18T12:32:45.793Z,97413.59
2017-08-18T12:35:13.468Z,97409.36
2017-08-18T12:37:41.351Z,97404.75
2017-08-18T12:40:09.046Z,97396.63
2017-08-18T12:42:36.610Z,97394.44
2017-08-18T12:45:04.375Z,97391.73
2017-08-18T12:47:32.080Z,97392.15
2017-08-18T12:49:59.579Z,97383.59
2017-08-18T12:52:27.141Z,97381.99
2017-08-18T12:54:54.768Z,97372.05
2017-08-18T12:57:22.308Z,97376.16
2017-08-18T12:59:49.925Z,97369.75
2017-08-18T13:02:17.545Z,97368.08
2017-08-18T13:04:45.080Z,97367.88
2017-08-18T13:07:12.648Z,97358.73
2017-08-18T13:09:40.362Z,97356.20
2017-08-18T13:12:08.110Z,97369.72
2017-08-18T13:14:35.648Z,97356.05
2017-08-18T13:17:04.946Z,97352.70
2017-08-18T13:19:32.582Z,97346.37
2017-08-18T13:22:00.256Z,97339.23
2017-08-18T13:24:28.237Z,97349.41
2017-08-18T13:26:55.823Z,97336.48
2017-08-18T13:29:23.491Z,97332.30
2017-08-18T13:31:51.068Z,97332.89
2017-08-18T13:34:18.665Z,97324.40
2017-08-18T13:36:46.306Z,97328.44
2017-08-18T13:39:14.995Z,97329.77
2017-08-18T13:41:42.532Z,97331.99
2017-08-18T13:44:10.145Z,97330.59
2017-08-18T13:46:37.709Z,97324.03
2017-08-18T13:49:05.331Z,97325.03
2017-08-18T13:51:32.845Z,97326.86
2017-08-18T13:54:00.432Z,97314.36
2017-08-18T13:56:28.048Z,97305.92
2017-08-18T13:58:56.536Z,97304.52
2017-08-18T14:01:24.072Z,97297.38
2017-08-18T14:03:51.735Z,97294.64
2017-08-18T14:06:19.309Z,97283.97
2017-08-18T14:08:46.940Z,97286.77
2017-08-18T14:11:14.503Z,97279.83
2017-08-18T14:13:42.088Z,97279.70
2017-08-18T14:16:09.913Z,97279.80
2017-08-18T14:18:37.647Z,97276.27
2017-08-18T14:21:05.161Z,97278.77
2017-08-18T14:23:32.743Z,97275.69
2017-08-18T14:26:05.883Z,97268.80
2017-08-18T14:28:33.515Z,97266.94
2017-08-18T14:31:01.011Z,97258.63
2017-08-18T14:33:28.554Z,97249.22
2017-08-18T14:35:56.127Z,97236.39
2017-08-18T14:38:23.771Z,97241.05
2017-08-18T14:40:51.244Z,97233.17
2017-08-18T14:43:18.817Z,97216.95
2017-08-18T14:45:46.519Z,97200.58
2017-08-18T14:48:14.056Z,97186.76
2017-08-18T14:50:41.628Z,97180.12
2017-08-18T14:53:09.186Z,97176.10
2017-08-18T14:55:37.152Z,97176.50
2017-08-18T14:58:04.764Z,97177.62
2017-08-18T15:00:32.275Z,97163.89
2017-08-18T15:02:59.830Z,97170.67
2017-08-18T15:05:27.647Z,97188.37
2017-08-18T15:07:55.256Z,97176.91
2017-08-18T15:10:22.756Z,97187.44
2017-08-18T15:12:51.571Z,97191.53
2017-08-18T15:15:19.188Z,97197.66
2017-08-18T15:17:46.665Z,97207.98
2017-08-18T15:20:14.175Z,97236.16
2017-08-18T15:22:43.447Z,97261.74
2017-08-18T15:25:12.597Z,97255.72
2017-08-18T15:27:44.177Z,97259.30
2017-08-18T15:30:13.378Z,97264.61
2017-08-18T15:32:41.085Z,97279.56
2017-08-18T15:35:08.603Z,97318.77
2017-08-18T15:37:36.214Z,97405.66
2017-08-18T15:40:03.723Z,97418.77
2017-08-18T15:42:32.574Z,97410.60
2017-08-18T15:45:00.451Z,97367.14
2017-08-18T15:47:27.944Z,97349.80
2017-08-18T15:49:55.488Z,97364.77
2017-08-18T15:52:22.999Z,97366.34
2017-08-18T15:54:50.556Z,97366.75
2017-08-18T15:57:18.060Z,97362.44
2017-08-18T15:59:45.633Z,97362.41
2017-08-18T16:02:13.160Z,97384.42
2017-08-18T16:04:41.820Z,97401.59
2017-08-18T16:07:09.390Z,97402.72
2017-08-18T16:09:36.951Z,97405.98
2017-08-18T16:12:04.503Z,97414.03
2017-08-18T16:14:32.013Z,97443.88
2017-08-18T16:17:00.129Z,97458.84
2017-08-18T16:19:27.660Z,97486.30
2017-08-18T16:21:55.344Z,97485.13
2017-08-18T16:24:23.020Z,97443.07
2017-08-18T16:26:51.045Z,97462.08
2017-08-18T16:29:18.509Z,97477.72
2017-08-18T16:31:46.611Z,97503.97
2017-08-18T16:34:14.094Z,97506.47
2017-08-18T16:36:42.980Z,97509.23
2017-08-18T16:39:10.773Z,97519.42
2017-08-18T16:41:38.288Z,97520.72
2017-08-18T16:44:05.859Z,97521.69
2017-08-18T16:46:33.324Z,97519.03
2017-08-18T16:49:00.821Z,97528.52
2017-08-18T16:51:28.355Z,97548.67
2017-08-18T16:53:56.995Z,97571.70
2017-08-18T16:56:24.549Z,97571.92
2017-08-18T16:58:52.042Z,97562.23
2017-08-18T17:01:19.546Z,97568.20
2017-08-18T17:03:47.347Z,97580.06
2017-08-18T17:06:15.476Z,97575.75
2017-08-18T17:08:45.526Z,97577.70
2017-08-18T17:11:13.170Z,97583.70
2017-08-18T17:13:41.367Z,97587.29
2017-08-18T17:16:08.961Z,97566.11
2017-08-18T17:18:37.661Z,97548.54
2017-08-18T17:21:08.038Z,97538.11
2017-08-18T17:23:35.626Z,97544.44
2017-08-18T17:26:03.214Z,97592.17
2017-08-18T17:28:30.873Z,97727.89
2017-08-18T17:31:00.304Z,97802.19
2017-08-18T17:33:27.898Z,97743.47
2017-08-18T17:38:39.378Z,97713.64
2017-08-18T17:41:07.482Z,97730.56
2017-08-18T17:43:35.053Z,97728.19
2017-08-18T17:46:08.983Z,97750.23
2017-08-18T17:48:39.458Z,97754.25
2017-08-18T17:51:10.319Z,97746.92
2017-08-18T17:53:43.635Z,97744.14
2017-08-18T17:56:14.805Z,97721.30
2017-08-18T17:58:46.264Z,97681.77
2017-08-18T18:01:19.149Z,97637.61
2017-08-18T18:03:49.912Z,97650.44
2017-08-18T18:06:26.876Z,97627.55
2017-08-18T18:08:55.979Z,97613.59
2017-08-18T18:11:25.191Z,97617.47
2017-08-18T18:13:55.350Z,97631.38
2017-08-18T18:16:24.750Z,97635.41
2017-08-18T18:18:53.944Z,97615.63
2017-08-18T18:21:23.916Z,97589.98
2017-08-18T18:23:53.151Z,97582.02
2017-08-18T18:26:23.119Z,97594.92
2017-08-18T18:28:52.842Z,97611.00
2017-08-18T18:31:23.419Z,97609.94
2017-08-18T18:33:54.294Z,97625.23
2017-08-18T18:36:23.695Z,97633.25
2017-08-18T18:38:52.999Z,97648.34
2017-08-18T18:41:22.353Z,97663.64
2017-08-18T18:43:52.065Z,97667.44
2017-08-18T18:46:21.295Z,97672.34
2017-08-18T18:48:51.131Z,97669.17
2017-08-18T18:51:20.410Z,97693.55
2017-08-18T18:53:49.858Z,97690.06
2017-08-18T18:56:19.142Z,97706.91
2017-08-18T18:58:48.534Z,97708.53
2017-08-18T19:01:19.132Z,97692.80
2017-08-18T19:03:48.466Z,97698.30
2017-08-18T19:06:17.420Z,97697.02
2017-08-18T19:08:47.195Z,97705.80
2017-08-18T19:11:16.642Z,97719.30
2017-08-18T19:13:46.854Z,97733.42
2017-08-18T19:16:16.901Z,97742.28
2017-08-18T19:18:46.873Z,97751.86
2017-08-18T19:21:16.586Z,97756.77
2017-08-18T19:23:45.533Z,97770.92
2017-08-18T19:26:15.523Z,97766.55
2017-08-18T19:28:44.752Z,97769.38
2017-08-18T19:31:14.735Z,97769.63
2017-08-18T19:33:44.276Z,97779.75
2017-08-18T19:36:13.983Z,97786.58
2017-08-18T19:38:43.176Z,97781.34
2017-08-18T19:41:13.117Z,97778.75
2017-08-18T19:43:43.337Z,97776.67
2017-08-18T19:46:13.949Z,97793.20
2017-08-18T19:48:43.263Z,97804.77
2017-08-18T19:51:12.550Z,97795.56
2017-08-18T19:53:43.488Z,97795.47
2017-08-18T19:56:14.072Z,97810.55
2017-08-18T19:58:44.103Z,97812.67
2017-08-18T20:01:15.304Z,97809.63
2017-08-18T20:03:46.529Z,97814.92
2017-08-18T20:06:15.759Z,97812.14
2017-08-18T20:08:45.219Z,97809.23
2017-08-18T20:11:14.976Z,97803.30
2017-08-18T20:13:44.776Z,97807.27
2017-08-18T20:16:15.397Z,97808.08
2017-08-18T20:18:46.006Z,97818.26
2017-08-18T20:21:16.092Z,97813.95
2017-08-18T20:23:46.281Z,97817.78
2017-08-18T20:26:15.760Z,97815.73
2017-08-18T20:28:45.836Z,97806.94
2017-08-18T20:31:15.790Z,97808.98
2017-08-18T20:33:45.444Z,97816.40
2017-08-18T20:36:15.219Z,97821.93
2017-08-18T20:38:45.017Z,97823.52
2017-08-18T20:41:15.446Z,97820.17
2017-08-18T20:43:45.641Z,97814.69
2017-08-18T20:46:15.755Z,97808.52
2017-08-18T20:48:46.350Z,97820.05
2017-08-18T20:51:15.888Z,97816.59
2017-08-18T20:53:45.199Z,97825.01
2017-08-18T20:56:15.155Z,97823.77
2017-08-18T20:58:44.606Z,97830.38
2017-08-18T21:01:15.638Z,97832.95
2017-08-18T21:03:45.073Z,97833.45
2017-08-18T21:06:15.374Z,97829.22
2017-08-18T21:08:45.230Z,97829.63
2017-08-18T21:11:14.795Z,97829.53
2017-08-18T21:13:45.154Z,97828.53
2017-08-18T21:16:15.076Z,97831.47
2017-08-18T21:18:44.179Z,97829.00
2017-08-18T21:21:13.585Z,97833.51
2017-08-18T21:23:43.212Z,97831.11
2017-08-18T21:26:12.789Z,97841.17
2017-08-18T21:28:42.524Z,97837.88
2017-08-18T21:31:12.212Z,97835.20
2017-08-18T21:33:42.719Z,97831.88
2017-08-18T21:36:11.961Z,97835.87
2017-08-18T21:38:43.508Z,97833.17
2017-08-18T21:41:12.618Z,97839.18
2017-08-18T21:43:42.096Z,97844.29
2017-08-18T21:46:11.629Z,97852.27
2017-08-18T21:48:42.034Z,97863.84
2017-08-18T21:51:11.041Z,97860.69
2017-08-18T21:53:41.599Z,97877.41
2017-08-18T21:56:11.449Z,97884.97
2017-08-18T21:58:40.776Z,97887.13
2017-08-18T22:01:10.608Z,97889.52
2017-08-18T22:03:40.170Z,97889.44
2017-08-18T22:06:09.518Z,97883.34
2017-08-18T22:08:39.245Z,97884.96
2017-08-18T22:11:08.599Z,97874.34
2017-08-18T22:13:38.358Z,97880.02
2017-08-18T22:16:08.037Z,97872.22
2017-08-18T22:18:37.444Z,97870.52
2017-08-18T22:21:07.080Z,97868.75
2017-08-18T22:23:36.758Z,97858.64
2017-08-18T22:26:05.951Z,97856.33
2017-08-18T22:28:36.023Z,97860.76
2017-08-18T22:31:05.393Z,97870.21
2017-08-18T22:33:35.238Z,97877.09
2017-08-18T22:36:04.927Z,97876.45
2017-08-18T22:38:34.198Z,97875.37
2017-08-18T22:41:04.005Z,97866.90
2017-08-18T22:43:34.444Z,97874.30
2017-08-18T22:46:04.170Z,97872.58
2017-08-18T22:48:33.720Z,97852.48
2017-08-18T22:51:02.973Z,97854.70
2017-08-18T22:53:32.306Z,97876.59
2017-08-18T22:56:02.094Z,97879.59
2017-08-18T22:58:34.359Z,97883.97
2017-08-18T23:01:03.619Z,97886.41
2017-08-18T23:03:32.999Z,97873.95
2017-08-18T23:06:02.533Z,97876.75
2017-08-18T23:08:31.694Z,97868.77
2017-08-18T23:11:01.322Z,97867.14
2017-08-18T23:13:30.545Z,97868.66
2017-08-18T23:16:02.100Z,97867.63
2017-08-18T23:18:31.563Z,97879.27
2017-08-18T23:21:01.600Z,97880.92
2017-08-18T23:23:31.254Z,97883.41
2017-08-18T23:26:00.533Z,97883.53
2017-08-18T23:28:30.586Z,97883.08
2017-08-18T23:31:00.621Z,97880.81
2017-08-18T23:33:29.903Z,97872.30
2017-08-18T23:35:59.197Z,97864.41
2017-08-18T23:38:29.536Z,97863.41
2017-08-18T23:40:59.375Z,97864.66
2017-08-18T23:43:29.053Z,97860.27
2017-08-18T23:45:58.703Z,97851.85
2017-08-18T23:48:28.661Z,97856.48
2017-08-18T23:50:57.930Z,97856.94
2017-08-18T23:53:27.822Z,97860.61
2017-08-18T23:55:57.376Z,97862.61
2017-08-18T23:58:27.880Z,97861.52
